createdAt,value
2022-10-16T00:00:15.595Z,100652.38
2022-10-16T00:03:03.379Z,100653.34
2022-10-16T00:05:51.624Z,100655.13
2022-10-16T00:08:38.717Z,100657.88
2022-10-16T00:11:27.731Z,100649.41
2022-10-16T00:14:16.778Z,100659.38
2022-10-16T00:17:03.509Z,100659.94
2022-10-16T00:19:50.343Z,100661.34
2022-10-16T00:22:38.678Z,100668.84
2022-10-16T00:25:25.375Z,100675.38
2022-10-16T00:28:12.444Z,100676.72
2022-10-16T00:30:59.524Z,100678.44
2022-10-16T00:33:46.021Z,100680.56
2022-10-16T00:36:33.247Z,100681.72
2022-10-16T00:39:21.187Z,100669.66
2022-10-16T00:42:07.771Z,100688.47
2022-10-16T00:44:57.820Z,100692.69
2022-10-16T00:47:50.100Z,100698.91
2022-10-16T00:50:36.883Z,100694.28
2022-10-16T00:53:24.181Z,100683.13
2022-10-16T00:56:12.982Z,100675.13
2022-10-16T00:59:01.870Z,100688.81
2022-10-16T01:01:48.513Z,100684.72
2022-10-16T01:04:39.014Z,100682.41
2022-10-16T01:07:38.809Z,100689.97
2022-10-16T01:10:33.033Z,100699.56
2022-10-16T01:13:26.977Z,100705.69
2022-10-16T01:16:18.123Z,100711.66
2022-10-16T01:19:11.929Z,100701.53
2022-10-16T01:22:00.538Z,100708.06
2022-10-16T01:24:50.978Z,100711.97
2022-10-16T01:27:44.441Z,100708.94
2022-10-16T01:30:35.169Z,100706.94
2022-10-16T01:33:26.680Z,100709.44
2022-10-16T01:36:19.746Z,100714.34
2022-10-16T01:39:08.993Z,100708.63
2022-10-16T01:42:02.466Z,100707.91
2022-10-16T01:44:52.066Z,100713.25
2022-10-16T01:47:39.858Z,100714.25
2022-10-16T01:50:27.008Z,100721.03
2022-10-16T01:53:16.767Z,100730.84
2022-10-16T01:56:06.130Z,100719.03
2022-10-16T01:58:57.463Z,100715.88
2022-10-16T02:01:49.347Z,100723.63
2022-10-16T02:04:39.759Z,100722.84
2022-10-16T02:07:26.714Z,100727.34
2022-10-16T02:10:13.393Z,100735.16
2022-10-16T02:13:05.701Z,100734.28
2022-10-16T02:15:52.622Z,100736.44
2022-10-16T02:18:44.685Z,100717.59
2022-10-16T02:21:39.418Z,100743.16
2022-10-16T02:24:35.439Z,100736.81
2022-10-16T02:27:29.726Z,100744.81
2022-10-16T02:30:25.183Z,100751.28
2022-10-16T02:33:15.287Z,100749.19
2022-10-16T02:36:03.392Z,100751.22
2022-10-16T02:38:50.083Z,100762.44
2022-10-16T02:41:37.042Z,100764.91
2022-10-16T02:44:25.299Z,100769.41
2022-10-16T02:47:13.726Z,100769.56
2022-10-16T02:50:01.015Z,100769.56
2022-10-16T02:52:48.887Z,100770.75
2022-10-16T02:55:35.739Z,100760.22
2022-10-16T02:58:22.683Z,100760.00
2022-10-16T03:01:09.870Z,100777.09
2022-10-16T03:03:56.883Z,100779.81
2022-10-16T03:06:43.564Z,100780.25
2022-10-16T03:09:31.691Z,100769.66
2022-10-16T03:12:18.221Z,100774.34
2022-10-16T03:15:06.263Z,100782.47
2022-10-16T03:17:53.104Z,100773.63
2022-10-16T03:20:39.739Z,100774.63
2022-10-16T03:23:26.737Z,100791.66
2022-10-16T03:26:14.925Z,100793.75
2022-10-16T03:29:03.692Z,100797.50
2022-10-16T03:31:50.750Z,100804.84
2022-10-16T03:34:37.319Z,100793.59
2022-10-16T03:37:24.395Z,100790.00
2022-10-16T03:40:12.289Z,100783.94
2022-10-16T03:43:00.350Z,100791.28
2022-10-16T03:45:46.883Z,100800.47
2022-10-16T03:48:33.756Z,100786.56
2022-10-16T03:51:20.294Z,100800.03
2022-10-16T03:54:07.149Z,100801.09
2022-10-16T03:56:53.926Z,100812.78
2022-10-16T03:59:42.184Z,100819.16
2022-10-16T04:02:28.970Z,100828.22
2022-10-16T04:05:15.995Z,100833.75
2022-10-16T04:08:02.583Z,100839.06
2022-10-16T04:10:49.278Z,100837.34
2022-10-16T04:13:35.902Z,100846.19
2022-10-16T04:16:24.042Z,100846.31
2022-10-16T04:19:11.630Z,100840.00
2022-10-16T04:21:58.157Z,100840.75
2022-10-16T04:24:44.945Z,100851.44
2022-10-16T04:27:32.377Z,100839.06
2022-10-16T04:30:19.315Z,100842.19
2022-10-16T04:33:07.526Z,100828.16
2022-10-16T04:35:59.306Z,100836.34
2022-10-16T04:38:46.048Z,100838.00
2022-10-16T04:41:32.917Z,100840.72
2022-10-16T04:44:19.701Z,100845.31
2022-10-16T04:47:06.720Z,100852.56
2022-10-16T04:49:54.749Z,100852.44
2022-10-16T04:52:41.617Z,100863.06
2022-10-16T04:55:28.592Z,100865.06
2022-10-16T04:58:15.511Z,100854.22
2022-10-16T05:01:02.401Z,100848.97
2022-10-16T05:03:49.126Z,100842.97
2022-10-16T05:06:37.198Z,100843.09
2022-10-16T05:09:24.186Z,100841.91
2022-10-16T05:12:10.743Z,100849.28
2022-10-16T05:14:59.760Z,100851.69
2022-10-16T05:17:46.746Z,100865.19
2022-10-16T05:20:33.168Z,100871.38
2022-10-16T05:23:21.235Z,100877.75
2022-10-16T05:26:08.260Z,100878.44
2022-10-16T05:28:55.161Z,100887.47
2022-10-16T05:31:41.832Z,100888.41
2022-10-16T05:34:28.612Z,100890.25
2022-10-16T05:37:15.482Z,100879.78
2022-10-16T05:40:03.907Z,100881.22
2022-10-16T05:42:50.449Z,100877.88
2022-10-16T05:45:37.153Z,100882.16
2022-10-16T05:48:24.511Z,100893.47
2022-10-16T05:51:15.552Z,100895.25
2022-10-16T05:54:02.176Z,100903.19
2022-10-16T05:56:50.747Z,100905.66
2022-10-16T05:59:37.871Z,100903.72
2022-10-16T06:02:24.276Z,100910.72
2022-10-16T06:05:11.039Z,100908.25
2022-10-16T06:07:57.901Z,100902.66
2022-10-16T06:10:45.833Z,100908.84
2022-10-16T06:13:33.975Z,100912.31
2022-10-16T06:16:20.825Z,100917.50
2022-10-16T06:19:09.333Z,100911.19
2022-10-16T06:21:56.002Z,100917.00
2022-10-16T06:24:42.694Z,100923.19
2022-10-16T06:27:29.687Z,100922.88
2022-10-16T06:30:17.666Z,100925.59
2022-10-16T06:33:04.325Z,100906.59
2022-10-16T06:35:51.273Z,100919.66
2022-10-16T06:38:38.650Z,100918.38
2022-10-16T06:41:25.751Z,100932.44
2022-10-16T06:44:12.336Z,100930.97
2022-10-16T06:47:00.465Z,100932.00
2022-10-16T06:49:51.774Z,100943.53
2022-10-16T06:52:41.333Z,100954.88
2022-10-16T06:55:27.997Z,100963.69
2022-10-16T06:58:14.929Z,100966.88
2022-10-16T07:01:01.826Z,100974.59
2022-10-16T07:03:50.209Z,100965.72
2022-10-16T07:06:36.941Z,100973.25
2022-10-16T07:09:23.532Z,100968.06
2022-10-16T07:12:10.261Z,100964.81
2022-10-16T07:14:57.331Z,100969.28
2022-10-16T07:17:43.954Z,100969.94
2022-10-16T07:20:32.147Z,100984.66
2022-10-16T07:23:18.877Z,100994.22
2022-10-16T07:26:06.445Z,100996.97
2022-10-16T07:28:53.632Z,101006.63
2022-10-16T07:31:40.938Z,101012.03
2022-10-16T07:34:28.562Z,101006.91
2022-10-16T07:37:16.685Z,100990.75
2022-10-16T07:40:03.466Z,101001.16
2022-10-16T07:42:50.213Z,101011.63
2022-10-16T07:45:36.953Z,101019.66
2022-10-16T07:48:26.246Z,101017.41
2022-10-16T07:51:14.393Z,101012.28
2022-10-16T07:54:02.712Z,101016.31
2022-10-16T07:56:49.515Z,101022.28
2022-10-16T07:59:36.263Z,101016.84
2022-10-16T08:02:23.006Z,101004.81
2022-10-16T08:05:10.636Z,100996.88
2022-10-16T08:07:58.219Z,101004.72
2022-10-16T08:10:47.192Z,101005.19
2022-10-16T08:13:34.508Z,101012.13
2022-10-16T08:16:21.339Z,101021.84
2022-10-16T08:19:08.034Z,101033.81
2022-10-16T08:21:54.865Z,101028.19
2022-10-16T08:24:41.999Z,101028.81
2022-10-16T08:27:34.505Z,101035.09
2022-10-16T08:30:22.871Z,101031.94
2022-10-16T08:33:09.245Z,101017.78
2022-10-16T08:35:56.300Z,101027.47
2022-10-16T08:38:42.897Z,101021.81
2022-10-16T08:41:44.267Z,101026.91
2022-10-16T08:44:45.813Z,101032.72
2022-10-16T08:47:45.408Z,101039.91
2022-10-16T08:50:34.272Z,101030.41
2022-10-16T08:53:27.767Z,101039.13
2022-10-16T08:56:14.564Z,101041.72
2022-10-16T08:59:03.005Z,101045.38
2022-10-16T09:01:53.906Z,101039.59
2022-10-16T09:04:56.981Z,101033.72
2022-10-16T09:07:55.934Z,101039.16
2022-10-16T09:10:56.634Z,101044.59
2022-10-16T09:13:52.076Z,101048.00
2022-10-16T09:16:53.557Z,101059.31
2022-10-16T09:19:48.729Z,101049.91
2022-10-16T09:22:35.754Z,101054.66
2022-10-16T09:25:31.694Z,101056.63
2022-10-16T09:28:19.550Z,101059.63
2022-10-16T09:31:06.158Z,101061.63
2022-10-16T09:33:57.374Z,101064.56
2022-10-16T09:36:47.141Z,101064.47
2022-10-16T09:39:46.535Z,101064.41
2022-10-16T09:42:37.770Z,101075.72
2022-10-16T09:45:26.123Z,101076.94
2022-10-16T09:48:14.865Z,101071.31
2022-10-16T09:51:03.860Z,101079.59
2022-10-16T09:53:57.576Z,101095.09
2022-10-16T09:56:46.708Z,101095.31
2022-10-16T09:59:34.251Z,101078.97
2022-10-16T10:02:32.352Z,101082.91
2022-10-16T10:05:24.597Z,101075.16
2022-10-16T10:08:20.621Z,101078.28
2022-10-16T10:11:12.609Z,101095.00
2022-10-16T10:14:06.855Z,101093.69
2022-10-16T10:16:55.151Z,101094.06
2022-10-16T10:19:46.877Z,101093.75
2022-10-16T10:22:43.086Z,101093.75
2022-10-16T10:25:50.610Z,101104.16
2022-10-16T10:28:54.960Z,101108.69
2022-10-16T10:32:05.503Z,101112.59
2022-10-16T10:35:06.771Z,101112.00
2022-10-16T10:38:18.204Z,101126.38
2022-10-16T10:41:22.534Z,101128.22
2022-10-16T10:44:23.979Z,101125.41
2022-10-16T10:47:21.473Z,101113.13
2022-10-16T10:50:19.514Z,101124.91
2022-10-16T10:53:20.111Z,101120.13
2022-10-16T10:56:17.750Z,101118.50
2022-10-16T10:59:19.066Z,101114.56
2022-10-16T11:02:16.638Z,101113.69
2022-10-16T11:05:35.323Z,101115.91
2022-10-16T11:08:28.644Z,101119.75
2022-10-16T11:11:21.219Z,101122.25
2022-10-16T11:14:16.787Z,101114.19
2022-10-16T11:17:09.988Z,101120.22
2022-10-16T11:20:01.296Z,101121.38
2022-10-16T11:22:52.346Z,101126.66
2022-10-16T11:25:41.653Z,101123.50
2022-10-16T11:28:34.910Z,101126.75
2022-10-16T11:31:30.201Z,101129.25
2022-10-16T11:34:23.645Z,101119.44
2022-10-16T11:37:16.130Z,101125.13
2022-10-16T11:40:18.479Z,101126.25
2022-10-16T11:43:16.165Z,101120.03
2022-10-16T11:46:11.764Z,101112.34
2022-10-16T11:49:10.338Z,101116.66
2022-10-16T11:52:05.153Z,101123.00
2022-10-16T11:54:58.190Z,101112.34
2022-10-16T11:57:49.732Z,101122.91
2022-10-16T12:00:42.764Z,101125.69
2022-10-16T12:03:33.991Z,101124.34
2022-10-16T12:06:36.221Z,101130.00
2022-10-16T12:09:27.657Z,101134.03
2022-10-16T12:12:30.248Z,101139.22
2022-10-16T12:15:46.995Z,101140.16
2022-10-16T12:18:33.296Z,101143.53
2022-10-16T12:21:21.044Z,101148.78
2022-10-16T12:24:24.484Z,101156.38
2022-10-16T12:27:29.301Z,101153.78
2022-10-16T12:30:24.014Z,101156.94
2022-10-16T12:33:23.471Z,101159.81
2022-10-16T12:36:16.451Z,101154.19
2022-10-16T12:39:04.259Z,101157.47
2022-10-16T12:42:03.130Z,101165.63
2022-10-16T12:44:49.917Z,101173.88
2022-10-16T12:47:51.351Z,101164.16
2022-10-16T12:50:40.426Z,101161.66
2022-10-16T12:53:29.304Z,101153.69
2022-10-16T12:56:25.551Z,101175.88
2022-10-16T12:59:22.609Z,101182.91
2022-10-16T13:02:32.028Z,101191.91
2022-10-16T13:05:34.501Z,101185.13
2022-10-16T13:08:37.315Z,101180.72
2022-10-16T13:11:37.632Z,101184.53
2022-10-16T13:14:46.199Z,101181.84
2022-10-16T13:17:39.994Z,101189.16
2022-10-16T13:20:34.023Z,101196.25
2022-10-16T13:23:30.088Z,101202.19
2022-10-16T13:26:25.766Z,101209.88
2022-10-16T13:29:12.875Z,101200.63
2022-10-16T13:32:02.715Z,101208.69
2022-10-16T13:34:51.702Z,101213.16
2022-10-16T13:37:38.308Z,101219.50
2022-10-16T13:40:26.674Z,101212.22
2022-10-16T13:43:14.007Z,101218.84
2022-10-16T13:46:04.027Z,101212.59
2022-10-16T13:49:00.624Z,101229.69
2022-10-16T13:51:57.233Z,101226.19
2022-10-16T13:54:43.768Z,101224.28
2022-10-16T13:57:30.974Z,101232.63
2022-10-16T14:00:23.324Z,101227.88
2022-10-16T14:03:17.261Z,101233.34
2022-10-16T14:06:10.019Z,101234.41
2022-10-16T14:09:03.400Z,101224.25
2022-10-16T14:11:53.357Z,101231.53
2022-10-16T14:14:44.193Z,101229.13
2022-10-16T14:17:33.345Z,101237.16
2022-10-16T14:20:21.057Z,101234.56
2022-10-16T14:23:23.942Z,101248.03
2022-10-16T14:26:19.291Z,101251.09
2022-10-16T14:29:13.807Z,101256.81
2022-10-16T14:32:02.021Z,101255.81
2022-10-16T14:34:55.609Z,101260.75
2022-10-16T14:37:42.310Z,101255.38
2022-10-16T14:40:32.688Z,101273.03
2022-10-16T14:43:24.560Z,101269.38
2022-10-16T14:46:27.058Z,101270.19
2022-10-16T14:49:20.948Z,101279.13
2022-10-16T14:52:12.310Z,101268.16
2022-10-16T14:54:58.845Z,101273.28
2022-10-16T14:57:47.870Z,101271.03
2022-10-16T15:00:34.694Z,101282.56
2022-10-16T15:03:21.575Z,101294.69
2022-10-16T15:06:13.293Z,101288.00
2022-10-16T15:08:59.986Z,101293.22
2022-10-16T15:11:47.636Z,101295.75
2022-10-16T15:14:35.898Z,101297.63
2022-10-16T15:17:22.679Z,101289.44
2022-10-16T15:20:09.804Z,101301.50
2022-10-16T15:22:56.703Z,101298.84
2022-10-16T15:25:46.745Z,101299.63
2022-10-16T15:28:33.365Z,101296.44
2022-10-16T15:31:22.490Z,101304.66
2022-10-16T15:34:11.199Z,101315.19
2022-10-16T15:36:58.973Z,101307.81
2022-10-16T15:39:45.827Z,101323.63
2022-10-16T15:42:32.454Z,101324.66
2022-10-16T15:45:20.206Z,101321.94
2022-10-16T15:48:08.524Z,101322.41
2022-10-16T15:50:55.349Z,101326.94
2022-10-16T15:53:42.103Z,101343.16
2022-10-16T15:56:31.659Z,101343.63
2022-10-16T15:59:18.042Z,101357.53
2022-10-16T16:02:04.959Z,101357.13
2022-10-16T16:04:53.177Z,101370.09
2022-10-16T16:08:02.691Z,101367.84
2022-10-16T16:10:59.943Z,101369.81
2022-10-16T16:13:47.682Z,101369.06
2022-10-16T16:16:38.855Z,101374.66
2022-10-16T16:19:26.013Z,101378.53
2022-10-16T16:22:14.760Z,101384.91
2022-10-16T16:25:01.653Z,101394.16
2022-10-16T16:27:49.286Z,101396.22
2022-10-16T16:30:37.016Z,101394.41
2022-10-16T16:33:23.487Z,101402.91
2022-10-16T16:36:15.713Z,101413.25
2022-10-16T16:39:09.652Z,101420.75
2022-10-16T16:41:59.444Z,101415.88
2022-10-16T16:44:46.830Z,101423.81
2022-10-16T16:47:33.688Z,101430.47
2022-10-16T16:50:21.196Z,101435.91
2022-10-16T16:53:08.830Z,101449.63
2022-10-16T16:56:01.079Z,101451.78
2022-10-16T16:58:53.278Z,101450.28
2022-10-16T17:01:40.380Z,101453.88
2022-10-16T17:04:27.249Z,101462.13
2022-10-16T17:07:13.795Z,101478.31
2022-10-16T17:10:00.657Z,101478.50
2022-10-16T17:12:48.894Z,101481.41
2022-10-16T17:15:35.607Z,101481.53
2022-10-16T17:18:23.630Z,101483.63
2022-10-16T17:21:11.515Z,101498.00
2022-10-16T17:23:58.719Z,101484.75
2022-10-16T17:26:49.311Z,101492.66
2022-10-16T17:29:37.344Z,101493.09
2022-10-16T17:32:24.171Z,101502.81
2022-10-16T17:35:12.449Z,101504.03
2022-10-16T17:38:00.458Z,101505.09
2022-10-16T17:40:47.263Z,101513.28
2022-10-16T17:43:34.073Z,101506.59
2022-10-16T17:46:24.342Z,101519.94
2022-10-16T17:49:13.369Z,101528.81
2022-10-16T17:52:03.030Z,101537.97
2022-10-16T17:54:52.086Z,101551.66
2022-10-16T17:57:38.638Z,101550.25
2022-10-16T18:00:25.340Z,101549.78
2022-10-16T18:03:13.338Z,101546.41
2022-10-16T18:06:04.542Z,101547.56
2022-10-16T18:08:51.432Z,101544.22
2022-10-16T18:11:38.912Z,101550.75
2022-10-16T18:14:25.268Z,101555.25
2022-10-16T18:17:13.472Z,101547.38
2022-10-16T18:20:01.438Z,101544.88
2022-10-16T18:22:48.230Z,101553.84
2022-10-16T18:25:34.983Z,101557.44
2022-10-16T18:28:21.999Z,101565.09
2022-10-16T18:31:12.335Z,101574.06
2022-10-16T18:33:59.416Z,101577.47
2022-10-16T18:36:50.189Z,101579.78
2022-10-16T18:39:41.799Z,101584.47
2022-10-16T18:42:29.372Z,101583.03
2022-10-16T18:45:16.256Z,101584.09
2022-10-16T18:48:04.427Z,101591.59
2022-10-16T18:50:55.637Z,101601.56
2022-10-16T18:53:45.318Z,101608.75
2022-10-16T18:56:33.089Z,101613.31
2022-10-16T18:59:42.817Z,101613.38
2022-10-16T19:06:59.205Z,101621.50
2022-10-16T19:10:07.435Z,101613.59
2022-10-16T19:12:56.902Z,101601.22
2022-10-16T19:15:57.943Z,101591.84
2022-10-16T19:18:46.888Z,101603.66
2022-10-16T19:21:51.528Z,101612.56
2022-10-16T19:24:39.975Z,101626.84
2022-10-16T19:27:29.095Z,101647.19
2022-10-16T19:30:17.791Z,101647.22
2022-10-16T19:33:08.449Z,101625.31
2022-10-16T19:35:57.039Z,101628.97
2022-10-16T19:38:47.943Z,101634.31
2022-10-16T19:41:39.086Z,101635.31
2022-10-16T19:44:31.094Z,101631.81
2022-10-16T19:47:20.889Z,101637.97
2022-10-16T19:50:19.305Z,101650.53
2022-10-16T19:53:12.222Z,101650.56
2022-10-16T19:56:03.876Z,101661.28
2022-10-16T19:58:51.828Z,101667.56
2022-10-16T20:01:40.518Z,101668.44
2022-10-16T20:04:26.827Z,101668.44
2022-10-16T20:07:13.823Z,101673.38
2022-10-16T20:10:00.525Z,101664.75
2022-10-16T20:17:39.425Z,101674.69
2022-10-16T20:20:26.171Z,101682.66
2022-10-16T20:23:13.464Z,101694.16
2022-10-16T20:26:04.086Z,101700.38
2022-10-16T20:28:51.928Z,101694.16
2022-10-16T20:31:38.981Z,101700.38
2022-10-16T20:34:27.213Z,101696.09
2022-10-16T20:37:13.934Z,101699.75
2022-10-16T20:40:00.694Z,101707.72
2022-10-16T20:42:48.776Z,101712.13
2022-10-16T20:45:51.080Z,101698.03
2022-10-16T20:48:45.226Z,101708.69
2022-10-16T20:52:02.590Z,101706.03
2022-10-16T20:54:55.960Z,101710.44
2022-10-16T21:00:47.952Z,101716.69
2022-10-16T21:03:36.976Z,101720.28
2022-10-16T21:06:24.816Z,101716.84
2022-10-16T21:09:13.343Z,101718.50
2022-10-16T21:12:00.199Z,101723.84
2022-10-16T21:15:16.391Z,101718.53
2022-10-16T21:18:10.041Z,101716.78
2022-10-16T21:20:57.899Z,101719.41
2022-10-16T21:23:45.747Z,101726.47
2022-10-16T21:26:34.227Z,101728.22
2022-10-16T21:29:21.770Z,101729.06
2022-10-16T21:32:09.100Z,101726.41
2022-10-16T21:34:56.165Z,101737.91
2022-10-16T21:37:43.437Z,101737.97
2022-10-16T21:40:32.375Z,101753.69
2022-10-16T21:43:30.125Z,101746.66
2022-10-16T21:46:19.161Z,101761.69
2022-10-16T21:49:08.579Z,101770.50
2022-10-16T21:51:55.891Z,101770.47
2022-10-16T21:54:48.219Z,101773.03
2022-10-16T21:57:42.941Z,101772.09
2022-10-16T22:00:34.149Z,101773.91
2022-10-16T22:11:22.282Z,101785.47
2022-10-16T22:15:12.527Z,101789.91
2022-10-16T22:22:37.016Z,101775.84
2022-10-16T22:28:56.582Z,101777.72
2022-10-16T22:31:47.014Z,101774.22
2022-10-16T22:34:41.538Z,101776.88
2022-10-16T22:41:36.214Z,101756.00
2022-10-16T22:44:33.488Z,101756.94
2022-10-16T22:48:11.790Z,101760.44
2022-10-16T22:54:50.536Z,101764.97
2022-10-16T22:57:37.760Z,101781.69
2022-10-16T23:00:35.860Z,101779.88
2022-10-16T23:16:17.468Z,101778.88
2022-10-16T23:22:18.436Z,101785.81
2022-10-16T23:25:32.324Z,101793.72
2022-10-16T23:37:32.874Z,101791.78
2022-10-16T23:45:30.819Z,101814.59
2022-10-16T23:48:41.802Z,101816.28
2022-10-16T23:52:01.105Z,101824.13
2022-10-16T23:55:13.587Z,101827.59
2022-10-16T23:58:28.322Z,101823.06
